createdAt,value
2022-12-05T00:01:44.925Z,57.10
2022-12-05T00:04:15.334Z,56.27
2022-12-05T00:06:44.441Z,60.47
2022-12-05T00:09:14.650Z,61.17
2022-12-05T00:11:45.095Z,55.47
2022-12-05T00:14:14.712Z,61.13
2022-12-05T00:16:44.555Z,58.73
2022-12-05T00:19:14.662Z,60.60
2022-12-05T00:21:43.649Z,58.13
2022-12-05T00:24:14.377Z,62.60
2022-12-05T00:26:43.115Z,58.03
2022-12-05T00:29:11.330Z,61.23
2022-12-05T00:31:41.081Z,62.23
2022-12-05T00:34:09.565Z,56.67
2022-12-05T00:36:38.471Z,63.30
2022-12-05T00:39:09.026Z,58.60
2022-12-05T00:41:39.842Z,58.10
2022-12-05T00:44:08.236Z,60.03
2022-12-05T00:46:37.349Z,60.13
2022-12-05T00:49:08.912Z,55.87
2022-12-05T00:51:39.492Z,56.17
2022-12-05T00:54:10.684Z,53.10
2022-12-05T00:56:38.975Z,63.23
2022-12-05T00:59:08.468Z,56.60
2022-12-05T01:01:38.698Z,54.40
2022-12-05T01:04:11.520Z,53.17
2022-12-05T01:06:40.080Z,58.07
2022-12-05T01:09:09.097Z,57.93
2022-12-05T01:11:41.174Z,59.70
2022-12-05T01:14:10.067Z,60.47
2022-12-05T01:16:40.258Z,61.50
2022-12-05T01:19:13.919Z,58.63
2022-12-05T01:21:42.503Z,57.70
2022-12-05T01:24:12.762Z,58.87
2022-12-05T01:26:42.133Z,56.73
2022-12-05T01:29:10.727Z,53.87
2022-12-05T01:31:39.421Z,60.80
2022-12-05T01:34:11.207Z,58.50
2022-12-05T01:36:41.233Z,56.40
2022-12-05T01:39:10.861Z,55.53
2022-12-05T01:41:47.054Z,53.77
2022-12-05T01:44:53.724Z,54.50
2022-12-05T01:47:24.260Z,58.73
2022-12-05T01:49:52.523Z,57.00
2022-12-05T01:52:26.382Z,55.97
2022-12-05T01:54:57.785Z,54.43
2022-12-05T01:57:26.716Z,58.00
2022-12-05T01:59:59.712Z,60.67
2022-12-05T02:02:29.449Z,54.93
2022-12-05T02:05:02.605Z,58.00
2022-12-05T02:07:33.935Z,59.63
2022-12-05T02:10:02.217Z,54.17
2022-12-05T02:12:30.427Z,59.60
2022-12-05T02:15:09.131Z,57.57
2022-12-05T02:17:48.936Z,56.63
2022-12-05T02:20:29.785Z,56.00
2022-12-05T02:23:29.238Z,56.70
2022-12-05T02:26:29.721Z,50.90
2022-12-05T02:29:21.402Z,56.60
2022-12-05T02:31:57.178Z,55.20
2022-12-05T02:34:31.836Z,56.10
2022-12-05T02:37:04.920Z,53.43
2022-12-05T02:39:42.772Z,55.57
2022-12-05T02:42:16.757Z,57.33
2022-12-05T02:44:48.576Z,54.77
2022-12-05T02:47:22.476Z,58.23
2022-12-05T02:49:52.721Z,52.70
2022-12-05T02:52:22.267Z,59.30
2022-12-05T02:54:54.468Z,54.33
2022-12-05T02:57:23.525Z,59.13
2022-12-05T02:59:51.706Z,53.57
2022-12-05T03:02:26.880Z,54.37
2022-12-05T03:04:59.283Z,53.07
2022-12-05T03:07:30.610Z,54.00
2022-12-05T03:10:03.377Z,50.53
2022-12-05T03:12:36.641Z,50.57
2022-12-05T03:15:11.129Z,49.70
2022-12-05T03:17:48.274Z,53.07
2022-12-05T03:20:26.258Z,54.77
2022-12-05T03:22:58.633Z,49.43
2022-12-05T03:25:35.515Z,54.13
2022-12-05T03:28:09.698Z,46.47
2022-12-05T03:30:39.792Z,48.37
2022-12-05T03:33:14.522Z,49.63
2022-12-05T03:35:50.159Z,47.67
2022-12-05T03:38:26.443Z,43.23
2022-12-05T03:41:01.293Z,45.97
2022-12-05T03:43:37.048Z,47.93
2022-12-05T03:46:10.053Z,47.30
2022-12-05T03:48:49.150Z,47.87
2022-12-05T03:51:21.839Z,42.80
2022-12-05T03:53:55.088Z,43.07
2022-12-05T03:56:26.977Z,45.73
2022-12-05T03:58:59.497Z,44.93
2022-12-05T04:01:30.829Z,42.93
2022-12-05T04:04:04.403Z,41.63
2022-12-05T04:06:37.023Z,44.40
2022-12-05T04:09:12.389Z,38.90
2022-12-05T04:11:49.565Z,41.67
2022-12-05T04:14:20.568Z,39.67
2022-12-05T04:17:08.708Z,40.77
2022-12-05T04:20:06.208Z,39.20
2022-12-05T04:22:35.474Z,38.50
2022-12-05T04:25:23.739Z,35.90
2022-12-05T04:27:56.529Z,37.70
2022-12-05T04:30:26.407Z,35.10
2022-12-05T04:33:03.665Z,38.30
2022-12-05T04:35:39.133Z,35.87
2022-12-05T04:38:11.361Z,33.30
2022-12-05T04:40:45.956Z,30.00
2022-12-05T04:43:16.206Z,32.80
2022-12-05T04:45:45.559Z,35.47
2022-12-05T04:48:18.174Z,33.93
2022-12-05T04:50:49.270Z,32.80
2022-12-05T04:53:18.866Z,31.37
2022-12-05T04:55:51.624Z,30.37
2022-12-05T04:58:21.753Z,31.70
2022-12-05T05:00:57.427Z,35.10
2022-12-05T05:03:30.970Z,31.90
2022-12-05T05:06:01.150Z,30.43
2022-12-05T05:08:30.671Z,29.13
2022-12-05T05:11:08.140Z,31.20
2022-12-05T05:13:36.280Z,28.73
2022-12-05T05:16:05.060Z,28.40
2022-12-05T05:18:33.527Z,28.33
2022-12-05T05:21:02.987Z,27.43
2022-12-05T05:23:31.111Z,29.77
2022-12-05T05:25:59.244Z,29.90
2022-12-05T05:28:28.364Z,26.43
2022-12-05T05:30:56.544Z,26.37
2022-12-05T05:33:24.739Z,26.70
2022-12-05T05:35:52.854Z,28.40
2022-12-05T05:38:22.412Z,28.27
2022-12-05T05:40:50.785Z,26.33
2022-12-05T05:43:18.901Z,28.30
2022-12-05T05:45:47.064Z,26.60
2022-12-05T05:48:15.229Z,25.67
2022-12-05T05:50:43.379Z,26.30
2022-12-05T05:53:12.633Z,23.90
2022-12-05T05:55:42.941Z,23.50
2022-12-05T05:58:11.075Z,23.73
2022-12-05T06:00:39.480Z,25.37
2022-12-05T06:03:07.745Z,25.07
2022-12-05T06:05:36.051Z,24.00
2022-12-05T06:08:05.380Z,23.87
2022-12-05T06:10:33.944Z,24.00
2022-12-05T06:13:03.484Z,25.10
2022-12-05T06:15:31.874Z,26.00
2022-12-05T06:18:00.075Z,25.80
2022-12-05T06:20:28.221Z,28.03
2022-12-05T06:22:56.349Z,27.83
2022-12-05T06:25:24.501Z,27.77
2022-12-05T06:27:52.668Z,23.57
2022-12-05T06:30:22.256Z,25.93
2022-12-05T06:32:50.668Z,25.90
2022-12-05T06:35:18.797Z,22.77
2022-12-05T06:37:47.023Z,28.27
2022-12-05T06:40:16.636Z,25.00
2022-12-05T06:42:44.778Z,26.00
2022-12-05T06:45:13.082Z,24.67
2022-12-05T06:47:42.542Z,25.07
2022-12-05T06:50:11.446Z,24.40
2022-12-05T06:52:39.604Z,25.20
2022-12-05T06:55:08.207Z,25.53
2022-12-05T06:57:36.440Z,23.03
2022-12-05T07:00:24.139Z,23.50
2022-12-05T07:02:54.235Z,27.57
2022-12-05T07:05:22.456Z,22.93
2022-12-05T07:07:50.631Z,22.70
2022-12-05T07:10:19.024Z,23.77
2022-12-05T07:12:47.147Z,24.07
2022-12-05T07:15:15.328Z,21.40
2022-12-05T07:17:43.467Z,24.43
2022-12-05T07:20:17.689Z,19.77
2022-12-05T07:22:45.906Z,23.00
2022-12-05T07:25:14.099Z,21.77
2022-12-05T07:27:42.213Z,22.80
2022-12-05T07:30:11.192Z,24.47
2022-12-05T07:32:39.408Z,20.10
2022-12-05T07:35:08.159Z,20.63
2022-12-05T07:37:37.687Z,21.30
2022-12-05T07:40:07.007Z,20.20
2022-12-05T07:42:35.292Z,20.20
2022-12-05T07:45:03.433Z,18.13
2022-12-05T07:47:31.706Z,18.97
2022-12-05T07:50:00.146Z,20.27
2022-12-05T07:52:28.841Z,21.27
2022-12-05T07:54:59.081Z,22.43
2022-12-05T07:57:27.230Z,19.50
2022-12-05T07:59:55.513Z,19.87
2022-12-05T08:02:23.886Z,18.13
2022-12-05T08:04:52.057Z,19.83
2022-12-05T08:07:20.121Z,18.70
2022-12-05T08:09:48.183Z,22.13
2022-12-05T08:12:17.829Z,20.87
2022-12-05T08:14:46.186Z,19.70
2022-12-05T08:17:14.324Z,22.47
2022-12-05T08:19:42.400Z,19.10
2022-12-05T08:22:10.754Z,21.27
2022-12-05T08:24:39.496Z,19.67
2022-12-05T08:27:07.865Z,20.67
2022-12-05T08:29:37.536Z,21.80
2022-12-05T08:32:06.300Z,21.10
2022-12-05T08:34:34.420Z,19.77
2022-12-05T08:37:02.536Z,21.13
2022-12-05T08:39:37.995Z,21.40
2022-12-05T08:42:07.040Z,20.10
2022-12-05T08:44:35.156Z,22.10
2022-12-05T08:47:04.818Z,21.63
2022-12-05T08:49:33.379Z,20.73
2022-12-05T08:52:01.735Z,24.33
2022-12-05T08:54:30.117Z,22.50
2022-12-05T08:56:59.339Z,23.10
2022-12-05T08:59:27.596Z,23.20
2022-12-05T09:01:55.793Z,22.30
2022-12-05T09:04:25.381Z,23.50
2022-12-05T09:06:53.541Z,23.03
2022-12-05T09:09:21.665Z,24.50
2022-12-05T09:11:50.948Z,24.17
2022-12-05T09:14:19.767Z,25.07
2022-12-05T09:16:48.840Z,26.83
2022-12-05T09:19:20.658Z,26.30
2022-12-05T09:21:50.141Z,25.83
2022-12-05T09:24:18.292Z,27.13
2022-12-05T09:26:46.932Z,25.93
2022-12-05T09:29:17.229Z,27.23
2022-12-05T09:31:48.465Z,25.03
2022-12-05T09:34:18.333Z,30.57
2022-12-05T09:36:55.830Z,30.20
2022-12-05T09:39:28.225Z,31.80
2022-12-05T09:42:31.172Z,28.37
2022-12-05T09:45:24.330Z,31.20
2022-12-05T09:48:00.696Z,29.40
2022-12-05T09:50:31.592Z,27.97
2022-12-05T09:53:04.641Z,28.30
2022-12-05T09:55:41.236Z,27.07
2022-12-05T09:58:20.425Z,29.20
2022-12-05T10:00:50.544Z,30.20
2022-12-05T10:03:26.739Z,32.50
2022-12-05T10:06:07.153Z,28.87
2022-12-05T10:08:43.477Z,28.93
2022-12-05T10:11:19.570Z,27.60
2022-12-05T10:13:57.319Z,27.67
2022-12-05T10:16:32.510Z,26.97
2022-12-05T10:19:04.368Z,28.20
2022-12-05T10:21:38.019Z,26.67
2022-12-05T10:24:13.803Z,29.10
2022-12-05T10:26:46.071Z,26.30
2022-12-05T10:29:24.807Z,28.47
2022-12-05T10:31:58.090Z,25.73
2022-12-05T10:34:33.881Z,26.17
2022-12-05T10:37:11.268Z,23.37
2022-12-05T10:39:39.782Z,26.13
2022-12-05T10:42:16.339Z,25.37
2022-12-05T10:44:45.599Z,26.60
2022-12-05T10:47:13.996Z,26.40
2022-12-05T10:49:42.995Z,22.90
2022-12-05T10:52:14.541Z,23.30
2022-12-05T10:54:46.871Z,22.10
2022-12-05T10:57:24.968Z,24.57
2022-12-05T10:59:54.473Z,20.80
2022-12-05T11:02:27.462Z,23.80
2022-12-05T11:04:57.027Z,25.33
2022-12-05T11:07:31.002Z,21.43
2022-12-05T11:10:00.482Z,24.13
2022-12-05T11:12:37.757Z,23.73
2022-12-05T11:15:21.652Z,23.60
2022-12-05T11:17:51.567Z,22.80
2022-12-05T11:20:42.621Z,22.43
2022-12-05T11:23:24.043Z,25.70
2022-12-05T11:25:52.864Z,23.87
2022-12-05T11:28:31.619Z,23.20
2022-12-05T11:31:02.698Z,22.77
2022-12-05T11:33:32.949Z,23.73
2022-12-05T11:36:10.339Z,23.63
2022-12-05T11:38:40.704Z,21.60
2022-12-05T11:41:35.119Z,23.10
2022-12-05T11:44:28.500Z,20.40
2022-12-05T11:47:08.682Z,21.90
2022-12-05T11:50:02.693Z,19.90
2022-12-05T11:52:48.014Z,21.87
2022-12-05T11:55:21.170Z,21.60
2022-12-05T11:58:30.451Z,21.43
2022-12-05T12:01:11.508Z,20.67
2022-12-05T12:04:29.590Z,18.77
2022-12-05T12:07:10.197Z,21.53
2022-12-05T12:09:50.723Z,19.97
2022-12-05T12:12:29.876Z,20.23
2022-12-05T12:15:14.975Z,18.70
2022-12-05T12:17:52.766Z,20.57
2022-12-05T12:20:36.743Z,19.63
2022-12-05T12:23:20.846Z,19.37
2022-12-05T12:26:02.553Z,19.90
2022-12-05T12:28:40.293Z,19.93
2022-12-05T12:31:30.657Z,20.37
2022-12-05T12:34:10.534Z,20.10
2022-12-05T12:36:46.454Z,19.70
2022-12-05T12:39:28.868Z,18.10
2022-12-05T12:42:09.787Z,17.27
2022-12-05T12:44:55.800Z,18.30
2022-12-05T12:47:31.964Z,17.40
2022-12-05T12:50:14.362Z,18.00
2022-12-05T12:52:57.652Z,19.30
2022-12-05T12:55:32.779Z,17.77
2022-12-05T12:58:14.108Z,18.30
2022-12-05T13:00:56.152Z,17.30
2022-12-05T13:03:31.593Z,17.43
2022-12-05T13:06:05.539Z,18.30
2022-12-05T13:08:37.116Z,19.33
2022-12-05T13:11:09.789Z,18.90
2022-12-05T13:13:44.650Z,17.73
2022-12-05T13:16:23.147Z,17.20
2022-12-05T13:18:51.537Z,19.37
2022-12-05T13:21:21.429Z,20.00
2022-12-05T13:23:52.851Z,18.33
2022-12-05T13:26:21.560Z,19.70
2022-12-05T13:28:54.333Z,20.03
2022-12-05T13:31:36.609Z,17.53
2022-12-05T13:34:05.059Z,16.80
2022-12-05T13:36:59.525Z,18.53
2022-12-05T13:39:45.560Z,17.83
2022-12-05T13:42:24.813Z,17.73
2022-12-05T13:44:56.214Z,17.87
2022-12-05T13:47:30.449Z,17.40
2022-12-05T13:50:09.100Z,18.90
2022-12-05T13:52:48.524Z,16.57
2022-12-05T13:55:26.842Z,18.10
2022-12-05T13:57:58.770Z,17.73
2022-12-05T14:00:32.549Z,20.67
2022-12-05T14:03:04.989Z,18.27
2022-12-05T14:05:39.171Z,17.30
2022-12-05T14:08:46.543Z,18.37
2022-12-05T14:11:16.134Z,17.77
2022-12-05T14:13:45.369Z,17.07
2022-12-05T14:16:47.930Z,19.30
2022-12-05T14:19:38.718Z,19.13
2022-12-05T14:22:33.617Z,19.17
2022-12-05T14:25:12.002Z,19.00
2022-12-05T14:27:51.496Z,18.97
2022-12-05T14:30:26.877Z,16.40
2022-12-05T14:32:55.749Z,18.70
2022-12-05T14:35:29.893Z,19.00
2022-12-05T14:38:03.147Z,18.73
2022-12-05T14:40:33.737Z,20.50
2022-12-05T14:43:05.389Z,16.60
2022-12-05T14:45:37.143Z,18.07
2022-12-05T14:48:23.381Z,18.13
2022-12-05T14:50:52.795Z,19.00
2022-12-05T14:53:32.115Z,19.10
2022-12-05T14:56:08.908Z,19.97
2022-12-05T14:58:44.209Z,19.33
2022-12-05T15:01:17.671Z,19.30
2022-12-05T15:04:00.198Z,22.10
2022-12-05T15:06:28.751Z,20.27
2022-12-05T15:09:21.224Z,19.97
2022-12-05T15:11:47.367Z,19.53
2022-12-05T15:14:22.150Z,19.13
2022-12-05T15:16:53.537Z,20.17
2022-12-05T15:19:29.918Z,25.20
2022-12-05T15:21:59.930Z,24.40
2022-12-05T15:24:28.136Z,23.47
2022-12-05T15:26:58.195Z,21.20
2022-12-05T15:29:30.494Z,22.13
2022-12-05T15:32:02.192Z,19.73
2022-12-05T15:34:35.498Z,22.23
2022-12-05T15:37:07.504Z,23.47
2022-12-05T15:39:52.416Z,22.07
2022-12-05T15:42:24.763Z,23.30
2022-12-05T15:45:13.080Z,24.60
2022-12-05T15:47:41.569Z,25.13
2022-12-05T15:50:13.777Z,25.60
2022-12-05T15:52:46.966Z,25.73
2022-12-05T15:55:30.228Z,24.37
2022-12-05T15:58:09.661Z,24.80
2022-12-05T16:00:49.582Z,23.93
2022-12-05T16:03:21.318Z,27.13
2022-12-05T16:05:53.604Z,24.70
2022-12-05T16:08:24.320Z,25.80
2022-12-05T16:10:52.891Z,24.50
2022-12-05T16:13:25.609Z,24.53
2022-12-05T16:15:55.917Z,25.33
2022-12-05T16:18:27.690Z,26.00
2022-12-05T16:20:56.399Z,25.93
2022-12-05T16:23:28.300Z,28.57
2022-12-05T16:26:12.406Z,26.13
2022-12-05T16:28:40.664Z,24.50
2022-12-05T16:31:17.465Z,24.57
2022-12-05T16:33:45.723Z,26.00
2022-12-05T16:36:14.564Z,23.10
2022-12-05T16:38:43.422Z,26.17
2022-12-05T16:41:12.947Z,25.47
2022-12-05T16:43:46.710Z,26.30
2022-12-05T16:46:43.955Z,26.07
2022-12-05T16:49:19.561Z,25.33
2022-12-05T16:51:59.274Z,26.23
2022-12-05T16:54:27.453Z,26.60
2022-12-05T16:56:57.011Z,26.93
2022-12-05T16:59:31.216Z,24.60
2022-12-05T17:02:01.993Z,27.13
2022-12-05T17:04:31.499Z,26.33
2022-12-05T17:06:59.961Z,25.07
2022-12-05T17:09:28.220Z,25.00
2022-12-05T17:12:02.174Z,25.77
2022-12-05T17:14:30.427Z,28.13
2022-12-05T17:17:03.087Z,26.23
2022-12-05T17:19:31.199Z,25.97
2022-12-05T17:21:59.396Z,23.43
2022-12-05T17:24:28.529Z,25.40
2022-12-05T17:26:56.710Z,27.57
2022-12-05T17:29:25.135Z,23.60
2022-12-05T17:31:55.362Z,24.80
2022-12-05T17:34:24.863Z,25.13
2022-12-05T17:36:52.988Z,23.10
2022-12-05T17:39:26.515Z,23.87
2022-12-05T17:41:56.357Z,23.30
2022-12-05T17:44:24.670Z,23.57
2022-12-05T17:46:52.950Z,24.87
2022-12-05T17:49:22.752Z,23.43
2022-12-05T17:52:20.651Z,22.73
2022-12-05T17:54:41.960Z,24.03
2022-12-05T17:57:10.084Z,23.53
2022-12-05T17:59:38.930Z,22.97
2022-12-05T18:02:07.748Z,23.43
2022-12-05T18:04:36.762Z,23.33
2022-12-05T18:07:06.225Z,27.00
2022-12-05T18:09:34.351Z,28.20
2022-12-05T18:12:02.551Z,24.30
2022-12-05T18:14:30.870Z,25.67
2022-12-05T18:16:59.025Z,23.20
2022-12-05T18:19:27.163Z,25.77
2022-12-05T18:21:55.278Z,22.70
2022-12-05T18:24:24.743Z,22.53
2022-12-05T18:26:52.964Z,24.33
2022-12-05T18:29:21.078Z,24.90
2022-12-05T18:31:49.241Z,26.00
2022-12-05T18:34:17.704Z,24.07
2022-12-05T18:36:45.842Z,25.87
2022-12-05T18:39:14.909Z,23.50
2022-12-05T18:41:44.621Z,23.40
2022-12-05T18:44:12.860Z,24.10
2022-12-05T18:46:40.999Z,21.93
2022-12-05T18:49:09.115Z,22.50
2022-12-05T18:51:37.214Z,25.13
2022-12-05T18:54:05.476Z,25.63
2022-12-05T18:56:35.558Z,26.80
2022-12-05T18:59:06.659Z,29.37
2022-12-05T19:01:37.400Z,25.00
2022-12-05T19:04:07.558Z,29.67
2022-12-05T19:06:39.735Z,26.10
2022-12-05T19:09:10.004Z,28.90
2022-12-05T19:11:39.893Z,25.07
2022-12-05T19:14:12.722Z,38.57
2022-12-05T19:16:40.974Z,28.80
2022-12-05T19:19:09.828Z,24.70
2022-12-05T19:21:38.127Z,30.33
2022-12-05T19:24:08.189Z,35.30
2022-12-05T19:26:37.115Z,24.70
2022-12-05T19:29:06.160Z,36.57
2022-12-05T19:31:36.801Z,36.07
2022-12-05T19:34:07.004Z,31.90
2022-12-05T19:36:37.531Z,26.30
2022-12-05T19:39:09.183Z,26.83
2022-12-05T19:41:37.802Z,32.97
2022-12-05T19:44:06.303Z,27.17
2022-12-05T19:46:36.096Z,24.80
2022-12-05T19:49:06.161Z,27.97
2022-12-05T19:51:34.985Z,28.60
2022-12-05T19:54:05.837Z,32.87
2022-12-05T19:56:36.061Z,27.47
2022-12-05T19:59:05.687Z,23.00
2022-12-05T20:01:36.975Z,28.60
2022-12-05T20:04:07.149Z,23.77
2022-12-05T20:06:37.237Z,30.03
2022-12-05T20:09:06.376Z,26.10
2022-12-05T20:11:35.367Z,28.37
2022-12-05T20:14:04.672Z,25.27
2022-12-05T20:16:33.708Z,35.90
2022-12-05T20:19:04.447Z,34.37
2022-12-05T20:21:34.694Z,28.33
2022-12-05T20:24:05.546Z,28.13
2022-12-05T20:26:36.037Z,27.63
2022-12-05T20:29:06.106Z,26.37
2022-12-05T20:31:36.383Z,37.90
2022-12-05T20:34:07.045Z,30.83
2022-12-05T20:36:36.023Z,38.13
2022-12-05T20:39:06.862Z,39.70
2022-12-05T20:41:35.766Z,44.93
2022-12-05T20:44:07.275Z,30.90
2022-12-05T20:46:36.946Z,30.53
2022-12-05T20:49:06.564Z,30.60
2022-12-05T20:51:35.611Z,32.80
2022-12-05T20:54:05.454Z,30.60
2022-12-05T20:56:36.569Z,27.40
2022-12-05T20:59:06.349Z,30.17
2022-12-05T21:01:36.849Z,29.70
2022-12-05T21:04:08.509Z,30.10
2022-12-05T21:06:38.359Z,33.37
2022-12-05T21:09:14.928Z,30.57
2022-12-05T21:11:43.592Z,32.40
2022-12-05T21:14:12.641Z,28.97
2022-12-05T21:16:41.041Z,31.97
2022-12-05T21:19:10.567Z,31.27
2022-12-05T21:21:38.829Z,28.83
2022-12-05T21:24:08.291Z,33.43
2022-12-05T21:26:36.516Z,38.47
2022-12-05T21:29:07.064Z,33.23
2022-12-05T21:31:39.258Z,29.27
2022-12-05T21:34:15.569Z,30.80
2022-12-05T21:36:45.319Z,31.97
2022-12-05T21:39:13.487Z,36.10
2022-12-05T21:41:41.622Z,28.83
2022-12-05T21:44:09.846Z,33.87
2022-12-05T21:46:38.117Z,36.33
2022-12-05T21:49:06.438Z,35.10
2022-12-05T21:51:35.896Z,34.97
2022-12-05T21:54:04.416Z,43.90
2022-12-05T21:56:33.012Z,40.13
2022-12-05T21:59:01.140Z,28.53
2022-12-05T22:01:29.386Z,34.10
2022-12-05T22:04:00.705Z,32.60
2022-12-05T22:06:29.992Z,35.97
2022-12-05T22:08:59.989Z,35.83
2022-12-05T22:11:28.144Z,36.73
2022-12-05T22:13:56.385Z,24.67
2022-12-05T22:16:30.847Z,31.80
2022-12-05T22:19:01.347Z,32.77
2022-12-05T22:21:30.292Z,32.17
2022-12-05T22:23:59.763Z,26.93
2022-12-05T22:26:28.161Z,31.27
2022-12-05T22:28:57.234Z,27.30
2022-12-05T22:31:26.454Z,24.10
2022-12-05T22:33:55.058Z,26.60
2022-12-05T22:36:24.210Z,24.93
2022-12-05T22:38:52.430Z,22.50
2022-12-05T22:41:24.649Z,22.00
2022-12-05T22:43:56.495Z,22.90
2022-12-05T22:46:26.043Z,23.80
2022-12-05T22:48:54.561Z,21.83
2022-12-05T22:51:23.438Z,26.20
2022-12-05T22:53:52.322Z,21.73
2022-12-05T22:56:23.637Z,23.03
2022-12-05T22:58:54.695Z,23.13
2022-12-05T23:01:24.831Z,24.70
2022-12-05T23:03:56.792Z,22.57
2022-12-05T23:06:25.240Z,23.97
2022-12-05T23:08:53.847Z,24.90
2022-12-05T23:11:23.577Z,23.23
2022-12-05T23:13:53.863Z,21.97
2022-12-05T23:16:27.161Z,22.80
2022-12-05T23:18:57.606Z,20.40
2022-12-05T23:21:29.419Z,23.63
2022-12-05T23:23:59.696Z,21.40
2022-12-05T23:26:31.717Z,20.93
2022-12-05T23:29:00.012Z,22.47
2022-12-05T23:31:28.237Z,21.00
2022-12-05T23:34:02.705Z,21.30
2022-12-05T23:36:31.874Z,19.87
2022-12-05T23:39:00.102Z,18.47
2022-12-05T23:41:29.765Z,19.37
2022-12-05T23:43:57.901Z,15.93
2022-12-05T23:46:28.105Z,17.00
2022-12-05T23:48:57.623Z,15.90
2022-12-05T23:51:28.310Z,16.50
2022-12-05T23:53:59.195Z,15.33
2022-12-05T23:56:30.815Z,14.70
2022-12-05T23:58:59.360Z,13.30
